Time;durP1;ratioP1;P1;durP2;ratioP2;P2;SDS_P1;SDS_P2;PMS_P1;PMS_P2;Temp;Humidity;BMP_temperature;BMP_pressure;BME280_temperature;BME280_humidity;BME280_pressure;Samples;Min_cycle;Max_cycle;Signal;HPM_P1;HPM_P2
2022/12/22 03:27:14;;;;;;;1.75;1.38;;;8.00;99.90;;;;;;5028983;28;20511;-68
2022/12/22 03:29:40;;;;;;;1.38;1.27;;;8.00;99.90;;;;;;5029627;28;20049;-68
2022/12/22 03:32:05;;;;;;;0.63;0.63;;;8.00;99.90;;;;;;5027870;28;20469;-68
2022/12/22 03:34:31;;;;;;;0.70;0.70;;;8.10;99.90;;;;;;5028408;28;20045;-68
2022/12/22 03:36:56;;;;;;;0.10;0.10;;;8.10;99.90;;;;;;5025511;28;20135;-68
2022/12/22 03:39:22;;;;;;;0.57;0.57;;;8.10;99.90;;;;;;5028512;28;20056;-67
2022/12/22 03:47:16;;;;;;;2.90;1.77;;;8.10;99.90;;;;;;5028410;28;20065;-68
2022/12/22 03:49:41;;;;;;;4.13;1.90;;;8.20;99.90;;;;;;5026963;28;20474;-68
2022/12/22 03:52:07;;;;;;;3.92;1.50;;;8.10;99.90;;;;;;5027354;28;20049;-67
2022/12/22 03:54:32;;;;;;;0.30;0.30;;;8.10;99.90;;;;;;5028107;28;20041;-68
2022/12/22 03:56:58;;;;;;;2.65;2.35;;;8.10;99.90;;;;;;5028105;28;20046;-68
2022/12/22 03:59:24;;;;;;;0.47;0.47;;;8.10;99.90;;;;;;5028278;28;20393;-68
2022/12/22 04:01:51;;;;;;;1.65;0.93;;;8.10;99.90;;;;;;5026407;28;20049;-68
2022/12/22 04:04:19;;;;;;;1.00;1.00;;;8.10;99.90;;;;;;5027496;28;20052;-68
2022/12/22 04:06:45;;;;;;;0.50;0.50;;;8.10;99.90;;;;;;5027906;28;20489;-68
2022/12/22 04:09:11;;;;;;;0.77;0.77;;;8.10;99.90;;;;;;5026920;28;20057;-68
2022/12/22 04:14:20;;;;;;;;;;;8.10;99.90;;;;;;5027928;28;20046;-68
2022/12/22 04:16:46;;;;;;;1.17;1.17;;;8.00;99.90;;;;;;5009069;28;19921;-68
2022/12/22 04:19:12;;;;;;;3.67;1.45;;;8.00;99.90;;;;;;5026726;28;20091;-68
2022/12/22 04:21:37;;;;;;;3.13;2.13;;;8.00;99.90;;;;;;5027986;28;20548;-67
2022/12/22 04:24:04;;;;;;;8.20;1.17;;;8.00;99.90;;;;;;5026665;28;20033;-68
2022/12/22 04:26:29;;;;;;;2.25;2.10;;;8.00;99.90;;;;;;5028446;28;20507;-68
2022/12/22 04:28:55;;;;;;;2.50;1.38;;;8.00;99.90;;;;;;5043241;28;20049;-67
2022/12/22 04:31:21;;;;;;;0.10;0.10;;;8.00;99.90;;;;;;5024753;28;20053;-68
2022/12/22 04:33:47;;;;;;;0.40;0.40;;;8.00;99.90;;;;;;5025792;28;20490;-68
2022/12/22 04:36:13;;;;;;;1.13;0.68;;;8.00;99.90;;;;;;5028666;28;20089;-68
2022/12/22 04:38:38;;;;;;;0.35;0.35;;;8.00;99.90;;;;;;5026804;28;20151;-67
2022/12/22 04:41:05;;;;;;;1.75;1.65;;;7.90;99.90;;;;;;5028425;28;20056;-67
2022/12/22 04:43:31;;;;;;;0.43;0.43;;;8.00;99.90;;;;;;5022554;28;20059;-67
2022/12/22 04:45:57;;;;;;;0.55;0.55;;;8.00;99.90;;;;;;5026407;28;20037;-67
2022/12/22 04:48:23;;;;;;;1.10;1.08;;;8.00;99.90;;;;;;5027161;28;20602;-68
2022/12/22 04:50:50;;;;;;;1.05;1.05;;;7.90;99.90;;;;;;5027015;28;20041;-68
2022/12/22 04:53:16;;;;;;;0.10;0.10;;;7.90;99.90;;;;;;5026566;28;20065;-68
2022/12/22 04:55:53;;;;;;;0.80;0.80;;;7.90;99.90;;;;;;5027149;28;20421;-67
2022/12/22 04:58:19;;;;;;;0.85;0.85;;;7.90;99.90;;;;;;5026930;28;20584;-67
2022/12/22 05:00:44;;;;;;;0.60;0.60;;;7.90;99.90;;;;;;5027409;28;20115;-68
2022/12/22 05:03:10;;;;;;;1.65;1.33;;;7.90;99.90;;;;;;5024016;28;20132;-68
2022/12/22 05:05:36;;;;;;;0.30;0.30;;;7.90;99.90;;;;;;5027432;28;20472;-68
2022/12/22 05:08:02;;;;;;;1.40;1.30;;;7.70;99.90;;;;;;5026655;28;20825;-68
2022/12/22 05:10:28;;;;;;;0.82;0.82;;;7.80;99.90;;;;;;5028389;28;20070;-68
2022/12/22 05:12:54;;;;;;;8.50;1.75;;;7.80;99.90;;;;;;5041096;28;20401;-68
2022/12/22 05:15:29;;;;;;;0.90;0.90;;;7.80;99.90;;;;;;5027376;28;20099;-68
2022/12/22 05:17:55;;;;;;;0.20;0.20;;;7.70;99.90;;;;;;5028079;28;20033;-68
2022/12/22 05:20:22;;;;;;;1.83;1.63;;;7.70;99.90;;;;;;5026944;28;20053;-68
2022/12/22 05:22:48;;;;;;;0.30;0.30;;;7.70;99.90;;;;;;5027953;28;20124;-68
2022/12/22 05:25:18;;;;;;;0.82;0.82;;;7.60;99.90;;;;;;5032264;28;20458;-67
2022/12/22 05:27:45;;;;;;;0.20;0.20;;;7.60;99.90;;;;;;5025682;28;20068;-68
2022/12/22 05:30:12;;;;;;;0.22;0.22;;;7.60;99.90;;;;;;5029847;28;20079;-68
2022/12/22 05:32:38;;;;;;;0.90;0.85;;;7.60;99.90;;;;;;5031072;28;20046;-68
2022/12/22 05:35:04;;;;;;;0.95;0.88;;;7.60;99.90;;;;;;5030098;28;20073;-67
2022/12/22 05:37:30;;;;;;;1.65;1.05;;;7.60;99.90;;;;;;5030463;28;20382;-67
2022/12/22 05:39:56;;;;;;;0.45;0.45;;;7.60;99.90;;;;;;5031294;28;20048;-68
2022/12/22 05:42:37;;;;;;;0.30;0.30;;;7.60;99.90;;;;;;5028559;28;20046;-68
2022/12/22 05:45:24;;;;;;;0.95;0.52;;;7.70;99.90;;;;;;5029455;28;20045;-67
2022/12/22 05:47:51;;;;;;;0.47;0.47;;;7.60;99.90;;;;;;5028711;28;20049;-68
2022/12/22 05:50:19;;;;;;;0.57;0.40;;;7.60;99.90;;;;;;5031720;28;20157;-67
2022/12/22 05:52:46;;;;;;;0.52;0.52;;;7.60;99.90;;;;;;5028936;28;20507;-67
2022/12/22 05:55:13;;;;;;;1.15;1.15;;;7.60;99.90;;;;;;5030664;28;20140;-67
2022/12/22 05:57:39;;;;;;;1.50;1.40;;;7.60;99.90;;;;;;5029334;28;20055;-67
2022/12/22 06:00:07;;;;;;;0.20;0.20;;;7.60;99.90;;;;;;5026302;28;20497;-67
2022/12/22 06:02:33;;;;;;;4.68;1.25;;;7.60;99.90;;;;;;5027144;28;20044;-67
2022/12/22 06:04:59;;;;;;;1.75;0.73;;;7.60;99.90;;;;;;5030733;28;20549;-67
2022/12/22 06:07:24;;;;;;;0.10;0.10;;;7.60;99.90;;;;;;5030565;28;20124;-68
2022/12/22 06:09:50;;;;;;;0.50;0.50;;;7.60;99.90;;;;;;5029404;28;20077;-68
2022/12/22 06:12:15;;;;;;;0.08;0.08;;;7.50;99.90;;;;;;5028627;28;20052;-68
2022/12/22 06:14:41;;;;;;;0.17;0.17;;;7.50;99.90;;;;;;5027355;28;20096;-67
2022/12/22 06:17:06;;;;;;;2.65;1.83;;;7.50;99.90;;;;;;5030026;28;20405;-68
2022/12/22 06:19:32;;;;;;;0.10;0.10;;;7.50;99.90;;;;;;5029863;28;20049;-68
2022/12/22 06:21:58;;;;;;;2.85;1.65;;;7.50;99.90;;;;;;5016347;28;20053;-68
2022/12/22 06:24:23;;;;;;;0.10;0.10;;;7.40;99.90;;;;;;5030021;28;20107;-68
2022/12/22 06:26:49;;;;;;;0.10;0.10;;;7.40;99.90;;;;;;5030884;28;20049;-67
2022/12/22 06:29:14;;;;;;;1.40;1.00;;;7.40;99.90;;;;;;5027083;28;20045;-68
2022/12/22 06:31:40;;;;;;;0.73;0.73;;;7.40;99.90;;;;;;5029288;28;20038;-67
2022/12/22 06:34:07;;;;;;;0.10;0.10;;;7.50;99.90;;;;;;5029050;28;20424;-67
2022/12/22 06:36:33;;;;;;;0.30;0.30;;;7.40;99.90;;;;;;5021217;28;20069;-67
2022/12/22 06:38:59;;;;;;;0.63;0.63;;;7.30;99.90;;;;;;5028896;28;20611;-67
2022/12/22 06:44:08;;;;;;;0.75;0.75;;;7.20;99.90;;;;;;5029169;28;20104;-67
2022/12/22 06:46:34;;;;;;;0.00;0.00;;;7.10;99.90;;;;;;5028981;28;20046;-67
2022/12/22 06:48:59;;;;;;;0.20;0.20;;;7.10;99.90;;;;;;5029412;28;20049;-67
2022/12/22 06:51:25;;;;;;;0.10;0.10;;;7.00;99.90;;;;;;5024855;28;20057;-67
2022/12/22 06:53:50;;;;;;;0.10;0.10;;;7.00;99.90;;;;;;5026060;28;20069;-67
2022/12/22 06:56:16;;;;;;;0.00;0.00;;;7.00;99.90;;;;;;5028460;28;20049;-67
2022/12/22 06:58:41;;;;;;;0.40;0.40;;;6.90;99.90;;;;;;5029287;28;20057;-66
2022/12/22 07:01:07;;;;;;;0.10;0.10;;;6.90;99.90;;;;;;5026902;28;20508;-67
2022/12/22 07:03:32;;;;;;;0.20;0.20;;;6.80;99.90;;;;;;5025989;28;20386;-67
2022/12/22 07:05:58;;;;;;;0.20;0.20;;;6.70;99.90;;;;;;5028347;28;20110;-66
2022/12/22 07:08:24;;;;;;;0.10;0.10;;;6.60;99.90;;;;;;5024783;28;20069;-67
2022/12/22 07:10:58;;;;;;;0.10;0.10;;;6.60;99.90;;;;;;5026894;28;20042;-67
2022/12/22 07:13:27;;;;;;;0.17;0.17;;;6.60;99.90;;;;;;5021579;28;20149;-67
2022/12/22 07:15:53;;;;;;;0.95;0.65;;;6.50;99.90;;;;;;5028182;28;20053;-67
2022/12/22 07:18:19;;;;;;;0.30;0.30;;;6.40;99.90;;;;;;5026397;28;20137;-67
2022/12/22 07:20:44;;;;;;;0.55;0.55;;;6.40;99.90;;;;;;5024077;28;20553;-67
2022/12/22 07:23:10;;;;;;;0.43;0.43;;;6.30;99.90;;;;;;5028827;28;20128;-67
2022/12/22 07:25:36;;;;;;;0.10;0.10;;;6.20;99.90;;;;;;5029310;28;20124;-67
2022/12/22 07:28:02;;;;;;;0.10;0.10;;;6.10;99.90;;;;;;5026226;28;20159;-67
2022/12/22 07:30:28;;;;;;;0.10;0.10;;;6.10;99.90;;;;;;5029172;28;20038;-67
2022/12/22 07:32:54;;;;;;;1.75;0.95;;;6.10;99.90;;;;;;5028770;28;20049;-67
2022/12/22 07:35:19;;;;;;;0.75;0.75;;;6.10;99.90;;;;;;5027746;28;20045;-67
2022/12/22 07:37:47;;;;;;;0.15;0.15;;;6.10;99.90;;;;;;5028892;28;20390;-67
2022/12/22 07:40:13;;;;;;;0.10;0.10;;;6.00;99.90;;;;;;5026965;28;20052;-66
2022/12/22 07:42:45;;;;;;;0.05;0.05;;;6.00;99.90;;;;;;5021484;28;20042;-67
2022/12/22 07:45:15;;;;;;;0.47;0.47;;;5.90;99.90;;;;;;5039528;28;20037;-66
2022/12/22 07:47:42;;;;;;;0.10;0.10;;;5.90;99.90;;;;;;5025255;28;20060;-67
2022/12/22 07:50:27;;;;;;;1.58;0.82;;;5.90;99.90;;;;;;5020623;28;20084;-67
2022/12/22 07:52:54;;;;;;;0.25;0.25;;;5.80;99.90;;;;;;5023977;28;20041;-66
2022/12/22 07:55:20;;;;;;;0.10;0.10;;;5.80;99.90;;;;;;5023539;28;20375;-66
2022/12/22 07:57:46;;;;;;;0.52;0.52;;;5.70;99.90;;;;;;5025053;28;20107;-67
2022/12/22 08:00:13;;;;;;;0.10;0.10;;;5.70;99.90;;;;;;5029617;28;20045;-67
2022/12/22 08:02:39;;;;;;;0.10;0.10;;;5.70;99.90;;;;;;5027160;28;20128;-67
2022/12/22 08:05:05;;;;;;;0.10;0.10;;;5.60;99.90;;;;;;5028627;28;20083;-66
2022/12/22 08:07:31;;;;;;;0.15;0.15;;;5.60;99.90;;;;;;5029175;28;20045;-67
2022/12/22 08:09:57;;;;;;;0.10;0.10;;;5.50;99.90;;;;;;5026234;28;20127;-67
2022/12/22 08:12:23;;;;;;;0.30;0.30;;;5.50;99.90;;;;;;5017420;28;20422;-68
2022/12/22 08:14:48;;;;;;;0.10;0.10;;;5.50;99.90;;;;;;5028154;28;20042;-67
2022/12/22 08:17:14;;;;;;;0.10;0.10;;;5.50;99.90;;;;;;5026142;28;20642;-67
2022/12/22 08:19:40;;;;;;;0.10;0.10;;;5.60;99.90;;;;;;5025071;28;20049;-67
2022/12/22 08:22:06;;;;;;;0.10;0.10;;;5.50;99.90;;;;;;5020871;28;20401;-67
2022/12/22 08:24:31;;;;;;;0.10;0.10;;;5.60;99.90;;;;;;5026500;28;20064;-67
2022/12/22 08:27:02;;;;;;;0.10;0.10;;;5.60;99.90;;;;;;5026741;28;20042;-67
2022/12/22 08:29:35;;;;;;;0.10;0.10;;;5.50;99.90;;;;;;5025492;28;20099;-67
2022/12/22 08:32:01;;;;;;;0.10;0.10;;;5.50;99.90;;;;;;5026503;28;20068;-66
2022/12/22 08:34:27;;;;;;;0.10;0.10;;;5.60;99.90;;;;;;5027376;28;20059;-67
2022/12/22 08:36:56;;;;;;;0.08;0.08;;;5.60;99.90;;;;;;5025154;28;20034;-66
2022/12/22 08:39:26;;;;;;;0.10;0.10;;;5.60;99.90;;;;;;5024529;28;20124;-66
2022/12/22 08:41:52;;;;;;;0.30;0.30;;;5.60;99.90;;;;;;5026055;28;20050;-66
2022/12/22 08:44:22;;;;;;;0.10;0.10;;;5.50;99.90;;;;;;5026856;28;20754;-66
2022/12/22 08:46:48;;;;;;;0.05;0.05;;;5.50;99.90;;;;;;5027132;28;20065;-66
2022/12/22 08:49:15;;;;;;;0.00;0.00;;;5.60;99.90;;;;;;5024945;28;20060;-66
2022/12/22 08:51:41;;;;;;;0.10;0.10;;;5.60;99.90;;;;;;5025364;28;20045;-66
2022/12/22 08:54:07;;;;;;;0.10;0.10;;;5.60;99.90;;;;;;5019979;28;20408;-66
2022/12/22 08:56:34;;;;;;;0.20;0.20;;;5.70;99.90;;;;;;5024772;28;20053;-66
2022/12/22 08:59:04;;;;;;;0.10;0.10;;;5.60;99.90;;;;;;5027924;28;20099;-66
2022/12/22 09:01:31;;;;;;;0.20;0.20;;;5.70;99.90;;;;;;5029207;28;20120;-67
2022/12/22 09:03:57;;;;;;;1.17;0.65;;;5.70;99.90;;;;;;5032087;28;20103;-67
2022/12/22 09:06:24;;;;;;;0.43;0.43;;;5.70;99.90;;;;;;5031624;28;20456;-66
2022/12/22 09:08:57;;;;;;;0.10;0.10;;;5.70;99.90;;;;;;5030570;28;20038;-65
2022/12/22 09:11:23;;;;;;;0.20;0.20;;;5.70;99.90;;;;;;5029685;28;20091;-66
2022/12/22 09:13:51;;;;;;;0.10;0.10;;;5.80;99.90;;;;;;5031497;28;20116;-67
2022/12/22 09:16:18;;;;;;;0.10;0.10;;;5.80;99.90;;;;;;5030323;28;20056;-67
2022/12/22 09:18:44;;;;;;;0.10;0.10;;;5.80;99.90;;;;;;5029756;28;20488;-65
2022/12/22 09:21:10;;;;;;;0.10;0.10;;;5.90;99.90;;;;;;5031215;28;20045;-65
2022/12/22 09:23:35;;;;;;;0.10;0.10;;;6.00;99.90;;;;;;5029758;28;20049;-65
2022/12/22 09:26:13;;;;;;;0.10;0.10;;;6.10;99.90;;;;;;5030746;28;20060;-65
2022/12/22 09:28:39;;;;;;;0.20;0.20;;;6.20;99.90;;;;;;5043891;28;20087;-65
2022/12/22 09:31:05;;;;;;;0.10;0.10;;;6.30;99.90;;;;;;5027229;28;20033;-65
2022/12/22 09:33:32;;;;;;;0.00;0.00;;;6.30;99.90;;;;;;5030698;28;20700;-65
2022/12/22 09:35:58;;;;;;;0.30;0.30;;;6.40;99.90;;;;;;5029942;28;20444;-65
2022/12/22 09:38:27;;;;;;;0.20;0.20;;;6.50;99.90;;;;;;5029066;28;20488;-65
2022/12/22 09:40:55;;;;;;;0.20;0.20;;;6.60;99.90;;;;;;5028873;28;20041;-65
2022/12/22 09:43:26;;;;;;;0.15;0.15;;;6.60;99.90;;;;;;5030171;28;20064;-65
2022/12/22 09:45:52;;;;;;;0.20;0.20;;;6.70;99.90;;;;;;5027488;28;20076;-65
2022/12/22 09:48:18;;;;;;;0.10;0.10;;;6.70;99.90;;;;;;5026150;28;20485;-65
2022/12/22 09:50:43;;;;;;;0.10;0.10;;;6.80;99.90;;;;;;5023966;28;20085;-65
2022/12/22 09:53:21;;;;;;;0.10;0.10;;;6.80;99.90;;;;;;5030684;28;20037;-65
2022/12/22 09:55:48;;;;;;;0.10;0.10;;;6.90;99.90;;;;;;5030904;28;20041;-65
2022/12/22 09:58:23;;;;;;;0.10;0.10;;;7.00;99.90;;;;;;5029630;28;20187;-65
2022/12/22 10:01:21;;;;;;;0.10;0.10;;;7.10;99.90;;;;;;5025501;28;20508;-65
2022/12/22 10:03:58;;;;;;;0.10;0.10;;;7.20;99.90;;;;;;5000639;28;20054;-65
2022/12/22 10:06:33;;;;;;;0.30;0.30;;;7.30;99.90;;;;;;5023438;28;20125;-65
2022/12/22 10:09:16;;;;;;;0.13;0.13;;;7.30;99.90;;;;;;5020136;28;20156;-65
2022/12/22 10:11:50;;;;;;;0.22;0.22;;;7.40;99.90;;;;;;5026740;28;20060;-65
2022/12/22 10:14:15;;;;;;;0.10;0.10;;;7.40;99.90;;;;;;5024018;28;20052;-65
2022/12/22 10:16:41;;;;;;;0.10;0.10;;;7.50;99.90;;;;;;5028934;28;20042;-65
2022/12/22 10:19:10;;;;;;;0.10;0.10;;;7.40;99.90;;;;;;5029672;28;20072;-65
2022/12/22 10:21:35;;;;;;;0.03;0.03;;;7.40;99.90;;;;;;5029396;28;20033;-65
2022/12/22 10:24:16;;;;;;;0.10;0.10;;;7.40;99.90;;;;;;5030123;28;20600;-65
2022/12/22 10:26:42;;;;;;;0.00;0.00;;;7.50;99.90;;;;;;5027683;28;20076;-65
2022/12/22 10:29:15;;;;;;;0.10;0.10;;;7.50;99.90;;;;;;5027027;28;20051;-65
2022/12/22 10:31:55;;;;;;;;;;;7.50;99.90;;;;;;5029636;28;20041;-65
2022/12/22 10:34:21;;;;;;;0.13;0.13;;;7.60;99.90;;;;;;5027366;28;20012;-65
2022/12/22 10:36:50;;;;;;;0.10;0.10;;;7.60;99.90;;;;;;5028290;28;20152;-65
2022/12/22 10:39:45;;;;;;;1.17;0.85;;;7.70;99.90;;;;;;5030189;28;20075;-65
2022/12/22 10:42:12;;;;;;;;;;;7.70;99.90;;;;;;5024522;28;20140;-65
2022/12/22 10:44:42;;;;;;;0.40;0.40;;;7.80;99.90;;;;;;5028889;28;19931;-65
2022/12/22 10:47:18;;;;;;;0.10;0.10;;;7.80;99.90;;;;;;5029378;28;20401;-65
2022/12/22 10:49:47;;;;;;;0.20;0.20;;;7.80;99.90;;;;;;5028676;28;20400;-65
2022/12/22 10:52:25;;;;;;;0.10;0.10;;;7.90;99.90;;;;;;5027702;28;20404;-65
2022/12/22 10:54:51;;;;;;;0.10;0.10;;;7.90;99.90;;;;;;5028873;28;20400;-65
2022/12/22 10:57:17;;;;;;;0.00;0.00;;;7.90;99.90;;;;;;5027334;28;20041;-65
2022/12/22 10:59:48;;;;;;;0.20;0.20;;;8.00;99.90;;;;;;5024914;28;20045;-65
2022/12/22 11:02:28;;;;;;;0.68;0.68;;;8.10;99.90;;;;;;5028961;28;20496;-65
2022/12/22 11:05:01;;;;;;;0.10;0.10;;;8.10;99.90;;;;;;5025658;28;20037;-65
2022/12/22 11:07:30;;;;;;;0.10;0.10;;;8.10;99.90;;;;;;5027634;28;20045;-65
2022/12/22 11:09:56;;;;;;;0.30;0.30;;;8.20;99.90;;;;;;5025028;28;20040;-65
2022/12/22 11:12:30;;;;;;;0.10;0.10;;;8.20;99.90;;;;;;5021963;28;20401;-65
2022/12/22 11:15:09;;;;;;;1.75;1.27;;;8.20;99.90;;;;;;5026597;28;20041;-65
2022/12/22 11:17:43;;;;;;;0.10;0.10;;;8.30;99.90;;;;;;5027349;28;20045;-65
2022/12/22 11:20:43;;;;;;;0.10;0.10;;;8.30;99.90;;;;;;5023280;28;20037;-66
2022/12/22 11:23:20;;;;;;;2.45;1.55;;;8.30;99.90;;;;;;5022274;28;20077;-66
2022/12/22 11:26:14;;;;;;;0.00;0.00;;;8.40;99.90;;;;;;5028513;28;20037;-66
2022/12/22 11:28:51;;;;;;;0.13;0.13;;;8.40;99.90;;;;;;5016042;28;20136;-66
2022/12/22 11:31:31;;;;;;;0.20;0.20;;;8.40;99.90;;;;;;5013779;28;20413;-66
2022/12/22 11:34:35;;;;;;;0.65;0.38;;;8.50;99.90;;;;;;5025993;28;20038;-66
2022/12/22 11:37:13;;;;;;;0.20;0.20;;;8.50;99.90;;;;;;5027553;28;20054;-66
2022/12/22 11:39:48;;;;;;;1.42;1.33;;;8.50;99.90;;;;;;5025203;28;20041;-66
2022/12/22 11:42:48;;;;;;;0.10;0.10;;;8.60;99.90;;;;;;5027497;28;20049;-66
2022/12/22 11:45:54;;;;;;;0.00;0.00;;;8.70;99.90;;;;;;5009938;28;20494;-66
2022/12/22 11:48:41;;;;;;;0.10;0.10;;;8.80;99.90;;;;;;5029575;28;20038;-66
2022/12/22 11:51:34;;;;;;;0.00;0.00;;;8.90;99.90;;;;;;5026384;28;20057;-66
2022/12/22 11:54:38;;;;;;;0.20;0.20;;;9.00;99.90;;;;;;5027386;28;20045;-66
2022/12/22 11:57:21;;;;;;;0.20;0.20;;;9.00;99.90;;;;;;5025148;28;20124;-66
2022/12/22 11:59:56;;;;;;;0.93;0.93;;;9.20;99.90;;;;;;5018399;28;20084;-66
2022/12/22 12:02:37;;;;;;;0.10;0.10;;;9.30;99.90;;;;;;5027428;28;20049;-66
2022/12/22 12:05:30;;;;;;;0.00;0.00;;;9.40;99.90;;;;;;5023066;28;20057;-66
2022/12/22 12:08:43;;;;;;;0.10;0.10;;;9.50;99.90;;;;;;5013118;28;20709;-66
2022/12/22 12:11:27;;;;;;;4.95;0.57;;;9.60;99.90;;;;;;5021420;28;20069;-66
2022/12/22 12:14:13;;;;;;;2.35;0.98;;;9.60;99.90;;;;;;5028095;28;20511;-66
2022/12/22 12:16:56;;;;;;;0.10;0.10;;;9.50;99.90;;;;;;4995429;28;20057;-66
2022/12/22 12:19:47;;;;;;;0.30;0.30;;;9.50;99.90;;;;;;5027103;28;20564;-67
2022/12/22 12:22:44;;;;;;;0.10;0.10;;;9.40;99.90;;;;;;5023240;28;20132;-67
2022/12/22 12:25:39;;;;;;;0.20;0.20;;;9.30;99.90;;;;;;4985401;28;20057;-66
2022/12/22 12:28:46;;;;;;;1.88;0.90;;;9.20;99.90;;;;;;5025882;28;20038;-67
2022/12/22 12:31:16;;;;;;;0.10;0.10;;;9.20;99.90;;;;;;4987678;28;20409;-67
2022/12/22 12:33:54;;;;;;;0.10;0.10;;;9.20;99.90;;;;;;5027602;28;20485;-66
2022/12/22 12:36:19;;;;;;;0.10;0.10;;;9.40;99.90;;;;;;5025911;28;20042;-66
2022/12/22 12:39:23;;;;;;;0.57;0.57;;;9.50;99.90;;;;;;5028233;28;20046;-68
2022/12/22 12:42:11;;;;;;;0.17;0.17;;;9.50;99.90;;;;;;5021711;28;20092;-66
2022/12/22 12:44:38;;;;;;;0.10;0.10;;;9.60;99.90;;;;;;5027112;28;20128;-67
2022/12/22 12:47:06;;;;;;;0.10;0.10;;;9.60;99.90;;;;;;5027870;28;20057;-67
2022/12/22 12:49:35;;;;;;;0.32;0.32;;;9.70;99.90;;;;;;5026320;28;20103;-67
2022/12/22 12:52:01;;;;;;;0.35;0.35;;;9.70;99.90;;;;;;5024504;28;20401;-67
2022/12/22 12:54:40;;;;;;;0.00;0.00;;;9.50;99.90;;;;;;5028500;28;20038;-67
2022/12/22 12:57:24;;;;;;;0.00;0.00;;;9.60;99.90;;;;;;5024369;28;20052;-67
2022/12/22 12:59:52;;;;;;;0.10;0.10;;;9.50;99.90;;;;;;5023575;28;20136;-67
2022/12/22 13:02:27;;;;;;;0.08;0.08;;;9.50;99.90;;;;;;5025377;28;20038;-68
2022/12/22 13:05:02;;;;;;;0.10;0.10;;;9.50;99.90;;;;;;5027344;28;20071;-68
2022/12/22 13:08:05;;;;;;;0.10;0.10;;;9.50;99.90;;;;;;5025825;28;20041;-67
2022/12/22 13:10:33;;;;;;;0.10;0.10;;;9.50;99.90;;;;;;5027019;28;20393;-68
2022/12/22 13:12:59;;;;;;;0.10;0.10;;;9.40;99.90;;;;;;5027413;28;20033;-68
2022/12/22 13:15:43;;;;;;;0.10;0.10;;;9.40;99.90;;;;;;5025295;28;20048;-68
2022/12/22 13:18:24;;;;;;;0.77;0.77;;;9.40;99.90;;;;;;5022764;28;20041;-68
2022/12/22 13:21:11;;;;;;;0.22;0.22;;;9.40;99.90;;;;;;5021453;28;20054;-68
2022/12/22 13:23:55;;;;;;;6.00;1.95;;;9.40;99.90;;;;;;5024172;28;20686;-68
2022/12/22 13:26:27;;;;;;;0.20;0.20;;;9.40;99.90;;;;;;5020980;28;20041;-67
2022/12/22 13:28:56;;;;;;;0.10;0.10;;;9.40;99.90;;;;;;5027098;28;20046;-66
2022/12/22 13:31:32;;;;;;;0.00;0.00;;;9.30;99.90;;;;;;5029237;28;20128;-66
2022/12/22 13:34:18;;;;;;;0.10;0.10;;;9.40;99.90;;;;;;5021039;28;20078;-64
2022/12/22 13:36:45;;;;;;;0.10;0.10;;;9.40;99.90;;;;;;5029329;28;20045;-66
2022/12/22 13:39:13;;;;;;;0.10;0.10;;;9.50;99.90;;;;;;5026329;28;20037;-65
2022/12/22 13:41:40;;;;;;;0.00;0.00;;;9.50;99.90;;;;;;5028798;28;20129;-66
2022/12/22 13:44:12;;;;;;;7.85;1.70;;;9.60;99.90;;;;;;5029850;28;20132;-66
2022/12/22 13:46:38;;;;;;;0.10;0.10;;;9.50;99.90;;;;;;5025575;28;20573;-65
2022/12/22 13:49:08;;;;;;;0.10;0.10;;;9.60;99.90;;;;;;5023859;28;20124;-66
2022/12/22 13:51:36;;;;;;;0.20;0.20;;;9.60;99.90;;;;;;5031264;28;20037;-67
2022/12/22 13:54:08;;;;;;;2.28;1.38;;;9.60;99.90;;;;;;5026757;28;20045;-67
2022/12/22 13:56:41;;;;;;;0.95;0.85;;;9.70;99.90;;;;;;5029919;28;20042;-67
2022/12/22 13:59:34;;;;;;;0.10;0.10;;;9.70;99.90;;;;;;5030583;28;20053;-67
2022/12/22 14:02:15;;;;;;;0.70;0.65;;;9.80;99.90;;;;;;5031832;28;20093;-67
2022/12/22 14:04:43;;;;;;;1.05;0.95;;;9.70;99.90;;;;;;5029436;28;20482;-67
2022/12/22 14:07:10;;;;;;;0.10;0.10;;;9.70;99.90;;;;;;5027236;28;20046;-68
2022/12/22 14:09:36;;;;;;;0.05;0.05;;;9.70;99.90;;;;;;5032214;28;20046;-67
2022/12/22 14:12:05;;;;;;;0.10;0.10;;;9.60;99.90;;;;;;5032436;28;20049;-67
2022/12/22 14:14:36;;;;;;;0.03;0.03;;;9.60;99.90;;;;;;5032061;28;20108;-67
2022/12/22 14:17:03;;;;;;;0.00;0.00;;;9.50;99.90;;;;;;5026521;28;20052;-67
2022/12/22 14:19:34;;;;;;;0.10;0.10;;;9.50;99.90;;;;;;5029774;28;20045;-67
2022/12/22 14:22:00;;;;;;;1.65;0.90;;;9.50;99.90;;;;;;5031981;28;20046;-68
2022/12/22 14:24:28;;;;;;;0.25;0.25;;;9.40;99.90;;;;;;5031055;28;20037;-68
2022/12/22 14:26:54;;;;;;;2.47;0.68;;;9.40;99.90;;;;;;5029768;28;20068;-67
2022/12/22 14:29:25;;;;;;;0.30;0.30;;;9.40;99.90;;;;;;5030909;28;20041;-67
2022/12/22 14:31:56;;;;;;;1.55;1.08;;;9.40;99.90;;;;;;5032763;28;20048;-67
2022/12/22 14:34:33;;;;;;;0.10;0.10;;;9.40;99.90;;;;;;5030674;28;20076;-67
2022/12/22 14:36:59;;;;;;;0.10;0.10;;;9.30;99.90;;;;;;5031760;28;20053;-67
2022/12/22 14:39:29;;;;;;;0.00;0.00;;;9.20;99.90;;;;;;5032582;28;20045;-67
2022/12/22 14:41:58;;;;;;;0.10;0.10;;;9.20;99.90;;;;;;5030307;28;20037;-67
2022/12/22 14:44:25;;;;;;;1.50;1.42;;;9.20;99.90;;;;;;5029038;28;20057;-68
2022/12/22 14:47:13;;;;;;;0.00;0.00;;;9.10;99.90;;;;;;5031856;28;20057;-67
2022/12/22 14:49:49;;;;;;;0.05;0.05;;;9.10;99.90;;;;;;5029608;28;20391;-67
2022/12/22 14:52:42;;;;;;;0.10;0.10;;;9.20;99.90;;;;;;5032420;28;20053;-67
2022/12/22 14:55:41;;;;;;;0.10;0.10;;;9.10;99.90;;;;;;5028304;28;20095;-67
2022/12/22 14:58:13;;;;;;;0.20;0.20;;;9.10;99.90;;;;;;4988268;28;20062;-67
2022/12/22 15:00:40;;;;;;;0.10;0.10;;;9.10;99.90;;;;;;5011244;28;20077;-67
2022/12/22 15:03:31;;;;;;;0.10;0.10;;;9.00;99.90;;;;;;5011459;28;20042;-67
2022/12/22 15:06:23;;;;;;;0.30;0.30;;;9.00;99.90;;;;;;5021789;28;20056;-67
2022/12/22 15:08:52;;;;;;;0.05;0.05;;;9.00;99.90;;;;;;5016186;28;20133;-68
2022/12/22 15:11:19;;;;;;;0.38;0.25;;;8.90;99.90;;;;;;5019634;28;20044;-68
2022/12/22 15:13:47;;;;;;;0.10;0.10;;;8.80;99.90;;;;;;5031425;28;20091;-68
2022/12/22 15:16:18;;;;;;;1.45;0.98;;;8.80;99.90;;;;;;5029345;28;20151;-67
2022/12/22 15:18:45;;;;;;;0.10;0.10;;;8.70;99.90;;;;;;5029252;28;20558;-67
2022/12/22 15:21:13;;;;;;;2.00;0.52;;;8.70;99.90;;;;;;5029546;28;20489;-67
2022/12/22 15:23:39;;;;;;;0.75;0.75;;;8.70;99.90;;;;;;5031756;28;20121;-67
2022/12/22 15:26:05;;;;;;;0.63;0.63;;;8.70;99.90;;;;;;5028101;28;20116;-67
2022/12/22 15:28:31;;;;;;;0.57;0.57;;;8.60;99.90;;;;;;5031526;28;20040;-67
2022/12/22 15:31:01;;;;;;;0.20;0.20;;;8.60;99.90;;;;;;5029577;28;20085;-67
2022/12/22 15:33:28;;;;;;;0.30;0.30;;;8.50;99.90;;;;;;5029545;28;20091;-67
2022/12/22 15:35:53;;;;;;;0.57;0.57;;;8.40;99.90;;;;;;5031279;28;20057;-67
2022/12/22 15:38:21;;;;;;;1.65;1.15;;;8.40;99.90;;;;;;5030938;28;20396;-67
2022/12/22 15:40:47;;;;;;;0.28;0.28;;;8.40;99.90;;;;;;5012990;28;20046;-67
2022/12/22 15:43:13;;;;;;;0.20;0.20;;;8.40;99.90;;;;;;5027536;28;20079;-67
2022/12/22 15:45:40;;;;;;;1.30;0.75;;;8.30;99.90;;;;;;5030555;28;20064;-67
2022/12/22 15:48:11;;;;;;;0.50;0.50;;;8.30;99.90;;;;;;5030648;28;20058;-66
2022/12/22 15:50:40;;;;;;;0.10;0.10;;;8.30;99.90;;;;;;5028998;28;20060;-67
2022/12/22 15:53:10;;;;;;;0.38;0.38;;;8.20;99.90;;;;;;5028120;28;20077;-67
2022/12/22 15:55:45;;;;;;;0.10;0.10;;;8.20;99.90;;;;;;5029947;28;20052;-67
2022/12/22 15:58:17;;;;;;;0.10;0.10;;;8.20;99.90;;;;;;5031022;28;20037;-67
2022/12/22 16:00:43;;;;;;;0.43;0.40;;;8.20;99.90;;;;;;5029856;28;20649;-67
2022/12/22 16:03:10;;;;;;;0.30;0.30;;;8.20;99.90;;;;;;5028709;28;20041;-67
2022/12/22 16:05:36;;;;;;;0.20;0.20;;;8.20;99.90;;;;;;5029118;28;20072;-67
2022/12/22 16:08:04;;;;;;;1.33;1.23;;;8.20;99.90;;;;;;5029921;28;20049;-67
2022/12/22 16:10:32;;;;;;;0.10;0.10;;;8.20;99.90;;;;;;5027570;28;20052;-67
2022/12/22 16:13:01;;;;;;;0.35;0.35;;;8.10;99.90;;;;;;5030861;28;20176;-67
2022/12/22 16:15:32;;;;;;;0.15;0.15;;;8.10;99.90;;;;;;5027786;28;20511;-67
2022/12/22 16:17:59;;;;;;;0.50;0.50;;;8.10;99.90;;;;;;5028841;28;20489;-67
2022/12/22 16:20:28;;;;;;;1.00;0.90;;;8.00;99.90;;;;;;5028866;28;20132;-67
2022/12/22 16:22:54;;;;;;;0.17;0.17;;;8.00;99.90;;;;;;5030543;28;20046;-67
2022/12/22 16:25:23;;;;;;;4.00;2.22;;;8.00;99.90;;;;;;5028481;28;20504;-67
2022/12/22 16:27:49;;;;;;;0.10;0.10;;;8.00;99.90;;;;;;5024778;28;20528;-67
2022/12/22 16:30:19;;;;;;;5.07;1.98;;;8.00;99.90;;;;;;5030488;28;20054;-67
2022/12/22 16:32:44;;;;;;;0.20;0.20;;;8.00;99.90;;;;;;5045919;28;20049;-67
2022/12/22 16:35:10;;;;;;;0.32;0.32;;;8.00;99.90;;;;;;5027720;28;20124;-67
2022/12/22 16:37:36;;;;;;;0.28;0.28;;;8.00;99.90;;;;;;5030510;28;20539;-67
2022/12/22 16:40:04;;;;;;;0.20;0.20;;;7.90;99.90;;;;;;5030295;28;20046;-66
2022/12/22 16:42:30;;;;;;;0.38;0.38;;;7.90;99.90;;;;;;5029655;28;20045;-67
2022/12/22 16:44:56;;;;;;;0.50;0.50;;;7.90;99.90;;;;;;5028064;28;20049;-67
2022/12/22 16:47:25;;;;;;;0.15;0.15;;;7.90;99.90;;;;;;5030308;28;20524;-66
2022/12/22 16:49:52;;;;;;;0.22;0.22;;;7.90;99.90;;;;;;5027778;28;20152;-67
2022/12/22 16:52:36;;;;;;;0.10;0.10;;;7.80;99.90;;;;;;5030108;28;20048;-67
2022/12/22 16:55:12;;;;;;;0.10;0.10;;;7.80;99.90;;;;;;5027476;28;20050;-67